createdAt,value
2022-08-31T00:00:32.082Z,0.00
2022-08-31T00:01:32.070Z,0.00
2022-08-31T00:02:32.143Z,0.00
2022-08-31T00:03:32.046Z,0.00
2022-08-31T00:04:32.145Z,0.00
2022-08-31T00:05:32.056Z,0.00
2022-08-31T00:06:32.011Z,0.00
2022-08-31T00:07:32.011Z,0.00
2022-08-31T00:08:32.015Z,0.00
2022-08-31T00:09:32.002Z,0.00
2022-08-31T00:10:36.857Z,0.00
2022-08-31T00:11:31.951Z,0.00
2022-08-31T00:12:31.939Z,0.00
2022-08-31T00:13:31.926Z,0.00
2022-08-31T00:14:31.950Z,0.00
2022-08-31T00:15:31.904Z,0.00
2022-08-31T00:16:32.016Z,0.00
2022-08-31T00:17:31.881Z,0.00
2022-08-31T00:18:31.872Z,0.00
2022-08-31T00:19:31.871Z,0.00
2022-08-31T00:20:33.556Z,0.00
2022-08-31T00:21:31.893Z,0.00
2022-08-31T00:22:31.823Z,0.00
2022-08-31T00:23:31.853Z,0.00
2022-08-31T00:24:31.800Z,0.00
2022-08-31T00:25:31.793Z,0.00
2022-08-31T00:26:31.807Z,0.00
2022-08-31T00:27:31.921Z,0.00
2022-08-31T00:28:31.774Z,0.00
2022-08-31T00:29:31.739Z,0.00
2022-08-31T00:30:31.730Z,0.00
2022-08-31T00:31:31.801Z,0.00
2022-08-31T00:32:31.709Z,0.00
2022-08-31T00:33:31.718Z,0.00
2022-08-31T00:34:31.686Z,0.00
2022-08-31T00:35:31.669Z,0.00
2022-08-31T00:36:31.659Z,0.00
2022-08-31T00:37:31.650Z,0.00
2022-08-31T00:38:31.666Z,0.00
2022-08-31T00:39:31.651Z,0.00
2022-08-31T00:40:31.671Z,0.00
2022-08-31T00:41:31.601Z,0.00
2022-08-31T00:42:31.592Z,0.00
2022-08-31T00:43:31.585Z,0.00
2022-08-31T00:44:31.568Z,0.00
2022-08-31T00:45:31.637Z,0.00
2022-08-31T00:46:31.546Z,0.00
2022-08-31T00:47:31.535Z,0.00
2022-08-31T00:48:31.573Z,0.00
2022-08-31T00:49:31.508Z,0.00
2022-08-31T00:50:31.497Z,0.00
2022-08-31T00:51:31.486Z,0.00
2022-08-31T00:52:37.417Z,0.00
2022-08-31T00:53:31.457Z,0.00
2022-08-31T00:54:31.479Z,0.00
2022-08-31T00:55:31.437Z,0.00
2022-08-31T00:56:31.436Z,0.00
2022-08-31T00:57:34.403Z,0.00
2022-08-31T00:58:31.400Z,0.00
2022-08-31T00:59:31.413Z,0.00
2022-08-31T01:00:31.376Z,0.00
2022-08-31T01:01:31.426Z,0.00
2022-08-31T01:02:31.395Z,0.00
2022-08-31T01:03:31.341Z,0.00
2022-08-31T01:04:31.333Z,0.00
2022-08-31T01:05:31.325Z,0.00
2022-08-31T01:06:31.307Z,0.00
2022-08-31T01:07:31.313Z,0.00
2022-08-31T01:08:31.284Z,0.00
2022-08-31T01:09:31.294Z,0.00
2022-08-31T01:10:31.259Z,0.00
2022-08-31T01:11:31.319Z,0.00
2022-08-31T01:12:31.235Z,0.00
2022-08-31T01:13:31.222Z,0.00
2022-08-31T01:14:31.210Z,0.00
2022-08-31T01:15:31.211Z,0.00
2022-08-31T01:16:31.278Z,0.00
2022-08-31T01:17:31.177Z,0.00
2022-08-31T01:18:31.165Z,0.00
2022-08-31T01:19:31.150Z,0.00
2022-08-31T01:20:31.146Z,0.00
2022-08-31T01:21:31.125Z,0.00
2022-08-31T01:22:31.150Z,0.00
2022-08-31T01:23:31.104Z,0.00
2022-08-31T01:24:31.111Z,0.00
2022-08-31T01:25:33.551Z,0.00
2022-08-31T01:26:31.066Z,0.00
2022-08-31T01:27:31.084Z,0.00
2022-08-31T01:28:31.091Z,0.00
2022-08-31T01:29:31.046Z,0.00
2022-08-31T01:30:31.028Z,0.00
2022-08-31T01:31:31.029Z,0.00
2022-08-31T01:32:30.996Z,0.00
2022-08-31T01:33:30.983Z,0.00
2022-08-31T01:34:30.977Z,0.00
2022-08-31T01:35:30.957Z,0.00
2022-08-31T01:36:30.950Z,0.00
2022-08-31T01:37:30.934Z,0.00
2022-08-31T01:38:30.939Z,0.00
2022-08-31T01:39:30.934Z,0.00
2022-08-31T01:40:31.014Z,0.00
2022-08-31T01:41:30.886Z,0.00
2022-08-31T01:42:34.384Z,0.00
2022-08-31T01:43:30.868Z,0.00
2022-08-31T01:44:30.851Z,0.00
2022-08-31T01:45:30.846Z,0.00
2022-08-31T01:46:31.057Z,0.00
2022-08-31T01:47:30.813Z,0.00
2022-08-31T01:48:30.801Z,0.00
2022-08-31T01:49:30.797Z,0.00
2022-08-31T01:50:30.782Z,0.00
2022-08-31T01:51:30.768Z,0.00
2022-08-31T01:52:30.916Z,0.00
2022-08-31T01:53:30.760Z,0.00
2022-08-31T01:54:30.730Z,0.00
2022-08-31T01:55:30.722Z,0.00
2022-08-31T01:56:30.711Z,0.00
2022-08-31T01:57:33.651Z,0.00
2022-08-31T01:58:30.683Z,0.00
2022-08-31T01:59:30.698Z,0.00
2022-08-31T02:00:30.685Z,0.00
2022-08-31T02:01:33.992Z,0.00
2022-08-31T02:02:30.668Z,0.00
2022-08-31T02:03:30.644Z,0.00
2022-08-31T02:04:30.608Z,0.00
2022-08-31T02:05:30.595Z,0.00
2022-08-31T02:06:30.614Z,0.00
2022-08-31T02:07:30.569Z,0.00
2022-08-31T02:08:30.560Z,0.00
2022-08-31T02:09:30.558Z,0.00
2022-08-31T02:10:30.563Z,0.00
2022-08-31T02:11:30.522Z,0.00
2022-08-31T02:12:30.519Z,0.00
2022-08-31T02:13:30.506Z,0.00
2022-08-31T02:14:30.534Z,0.00
2022-08-31T02:15:30.520Z,0.00
2022-08-31T02:16:30.537Z,0.00
2022-08-31T02:17:30.456Z,0.00
2022-08-31T02:18:30.436Z,0.00
2022-08-31T02:19:30.464Z,0.00
2022-08-31T02:20:30.445Z,0.00
2022-08-31T02:21:30.417Z,0.00
2022-08-31T02:22:30.406Z,0.00
2022-08-31T02:23:30.374Z,0.00
2022-08-31T02:24:30.419Z,0.00
2022-08-31T02:25:30.379Z,0.00
2022-08-31T02:26:30.372Z,0.00
2022-08-31T02:27:30.327Z,0.00
2022-08-31T02:28:30.341Z,0.00
2022-08-31T02:29:30.330Z,0.00
2022-08-31T02:30:30.316Z,0.00
2022-08-31T02:31:30.285Z,0.00
2022-08-31T02:32:30.263Z,0.00
2022-08-31T02:33:30.260Z,0.00
2022-08-31T02:34:30.301Z,0.00
2022-08-31T02:35:30.236Z,0.00
2022-08-31T02:36:30.218Z,0.00
2022-08-31T02:37:30.211Z,0.00
2022-08-31T02:38:30.193Z,0.00
2022-08-31T02:39:30.189Z,0.00
2022-08-31T02:40:30.240Z,0.00
2022-08-31T02:41:30.163Z,0.00
2022-08-31T02:42:33.043Z,0.00
2022-08-31T02:43:30.133Z,0.00
2022-08-31T02:44:30.118Z,0.00
2022-08-31T02:45:30.113Z,0.00
2022-08-31T02:46:30.152Z,0.00
2022-08-31T02:47:30.081Z,0.00
2022-08-31T02:48:30.079Z,0.00
2022-08-31T02:49:30.054Z,0.00
2022-08-31T02:50:30.048Z,0.00
2022-08-31T02:51:30.103Z,0.00
2022-08-31T02:52:30.026Z,0.00
2022-08-31T02:53:30.008Z,0.00
2022-08-31T02:54:29.999Z,0.00
2022-08-31T02:55:29.980Z,0.00
2022-08-31T02:56:30.013Z,0.00
2022-08-31T02:57:29.983Z,0.00
2022-08-31T02:58:29.947Z,0.00
2022-08-31T02:59:29.939Z,0.00
2022-08-31T03:00:29.925Z,0.00
2022-08-31T03:01:29.988Z,0.00
2022-08-31T03:02:32.025Z,0.00
2022-08-31T03:03:29.882Z,0.00
2022-08-31T03:04:29.890Z,0.00
2022-08-31T03:05:29.913Z,0.00
2022-08-31T03:06:29.850Z,0.00
2022-08-31T03:07:29.839Z,0.00
2022-08-31T03:08:31.089Z,0.00
2022-08-31T03:09:29.808Z,0.00
2022-08-31T03:10:29.798Z,0.00
2022-08-31T03:11:29.788Z,0.00
2022-08-31T03:12:29.785Z,0.00
2022-08-31T03:13:29.786Z,0.00
2022-08-31T03:14:29.769Z,0.00
2022-08-31T03:15:29.924Z,0.00
2022-08-31T03:16:29.724Z,0.00
2022-08-31T03:17:29.727Z,0.00
2022-08-31T03:18:29.699Z,0.00
2022-08-31T03:19:29.685Z,0.00
2022-08-31T03:20:29.751Z,0.00
2022-08-31T03:21:29.659Z,0.00
2022-08-31T03:22:29.652Z,0.00
2022-08-31T03:23:29.727Z,0.00
2022-08-31T03:24:29.625Z,0.00
2022-08-31T03:25:29.632Z,0.00
2022-08-31T03:26:29.634Z,0.00
2022-08-31T03:27:29.591Z,0.00
2022-08-31T03:28:29.576Z,0.00
2022-08-31T03:29:29.562Z,0.00
2022-08-31T03:30:29.960Z,0.00
2022-08-31T03:31:29.593Z,0.00
2022-08-31T03:32:29.553Z,0.00
2022-08-31T03:33:29.512Z,0.00
2022-08-31T03:34:29.501Z,0.00
2022-08-31T03:35:29.502Z,0.00
2022-08-31T03:36:29.477Z,0.00
2022-08-31T03:37:29.494Z,0.00
2022-08-31T03:38:29.512Z,0.00
2022-08-31T03:39:29.436Z,0.00
2022-08-31T03:40:29.499Z,0.00
2022-08-31T03:41:29.415Z,0.00
2022-08-31T03:42:29.407Z,0.00
2022-08-31T03:43:29.412Z,0.00
2022-08-31T03:44:29.379Z,0.00
2022-08-31T03:45:29.389Z,0.00
2022-08-31T03:46:29.474Z,0.00
2022-08-31T03:47:29.339Z,0.00
2022-08-31T03:48:29.326Z,0.00
2022-08-31T03:49:29.313Z,0.00
2022-08-31T03:50:29.304Z,0.00
2022-08-31T03:51:29.289Z,0.00
2022-08-31T03:52:29.299Z,0.00
2022-08-31T03:53:29.283Z,0.00
2022-08-31T03:54:29.253Z,0.00
2022-08-31T03:55:29.239Z,0.00
2022-08-31T03:56:29.262Z,0.00
2022-08-31T03:57:29.239Z,0.00
2022-08-31T03:58:29.208Z,0.00
2022-08-31T03:59:29.191Z,0.00
2022-08-31T04:00:29.180Z,0.00
2022-08-31T04:01:29.265Z,0.00
2022-08-31T04:02:31.097Z,0.00
2022-08-31T04:03:29.137Z,0.00
2022-08-31T04:04:29.139Z,0.00
2022-08-31T04:05:29.113Z,0.00
2022-08-31T04:06:29.102Z,0.00
2022-08-31T04:07:29.331Z,0.00
2022-08-31T04:08:29.074Z,0.00
2022-08-31T04:09:29.085Z,0.00
2022-08-31T04:10:29.060Z,0.00
2022-08-31T04:11:40.526Z,0.00
2022-08-31T04:12:29.053Z,4.00
2022-08-31T04:13:30.336Z,0.00
2022-08-31T04:14:29.014Z,0.00
2022-08-31T04:15:29.467Z,4.00
2022-08-31T04:16:28.973Z,0.00
2022-08-31T04:17:28.963Z,0.00
2022-08-31T04:18:28.994Z,4.00
2022-08-31T04:19:31.341Z,4.00
2022-08-31T04:20:29.949Z,4.00
2022-08-31T04:21:28.937Z,4.00
2022-08-31T04:22:28.899Z,0.00
2022-08-31T04:23:28.943Z,0.00
2022-08-31T04:24:28.871Z,4.00
2022-08-31T04:25:29.824Z,4.00
2022-08-31T04:26:28.856Z,4.00
2022-08-31T04:27:28.836Z,4.00
2022-08-31T04:28:28.828Z,8.00
2022-08-31T04:29:28.839Z,8.00
2022-08-31T04:30:28.820Z,8.00
2022-08-31T04:31:28.831Z,8.00
2022-08-31T04:32:29.106Z,8.00
2022-08-31T04:33:28.839Z,12.00
2022-08-31T04:34:28.744Z,12.00
2022-08-31T04:35:28.733Z,12.00
2022-08-31T04:36:28.716Z,16.00
2022-08-31T04:37:28.714Z,16.00
2022-08-31T04:38:28.693Z,16.00
2022-08-31T04:39:32.242Z,16.00
2022-08-31T04:40:28.705Z,20.00
2022-08-31T04:41:28.660Z,20.00
2022-08-31T04:42:28.640Z,24.00
2022-08-31T04:43:28.631Z,24.00
2022-08-31T04:44:28.644Z,24.00
2022-08-31T04:45:28.686Z,28.00
2022-08-31T04:46:28.653Z,32.00
2022-08-31T04:47:28.608Z,32.00
2022-08-31T04:48:28.615Z,32.00
2022-08-31T04:49:28.552Z,36.00
2022-08-31T04:50:28.537Z,40.00
2022-08-31T04:51:28.528Z,40.00
2022-08-31T04:52:28.615Z,40.00
2022-08-31T04:53:28.502Z,44.00
2022-08-31T04:54:28.490Z,48.00
2022-08-31T04:55:28.506Z,48.00
2022-08-31T04:56:28.466Z,52.00
2022-08-31T04:57:28.451Z,52.00
2022-08-31T04:58:28.465Z,56.00
2022-08-31T04:59:28.450Z,56.00
2022-08-31T05:00:28.421Z,60.00
2022-08-31T05:01:28.524Z,60.00
2022-08-31T05:02:28.468Z,64.00
2022-08-31T05:03:28.382Z,68.00
2022-08-31T05:04:28.394Z,68.00
2022-08-31T05:05:28.344Z,68.00
2022-08-31T05:06:28.345Z,68.00
2022-08-31T05:07:28.320Z,72.00
2022-08-31T05:08:28.308Z,76.00
2022-08-31T05:09:28.302Z,76.00
2022-08-31T05:10:28.309Z,80.00
2022-08-31T05:11:28.332Z,80.00
2022-08-31T05:12:28.260Z,80.00
2022-08-31T05:13:28.258Z,84.00
2022-08-31T05:14:28.231Z,88.00
2022-08-31T05:15:28.215Z,96.00
2022-08-31T05:16:28.277Z,100.00
2022-08-31T05:17:28.190Z,104.00
2022-08-31T05:18:28.176Z,108.00
2022-08-31T05:19:28.211Z,116.00
2022-08-31T05:20:28.148Z,132.00
2022-08-31T05:21:28.197Z,136.00
2022-08-31T05:22:28.126Z,144.00
2022-08-31T05:23:28.135Z,144.00
2022-08-31T05:24:28.156Z,152.00
2022-08-31T05:25:28.090Z,148.00
2022-08-31T05:26:28.100Z,160.00
2022-08-31T05:27:28.097Z,156.00
2022-08-31T05:28:28.047Z,160.00
2022-08-31T05:29:28.040Z,156.00
2022-08-31T05:30:28.062Z,164.00
2022-08-31T05:31:28.044Z,168.00
2022-08-31T05:32:28.027Z,168.00
2022-08-31T05:33:27.985Z,168.00
2022-08-31T05:34:27.970Z,168.00
2022-08-31T05:35:27.962Z,172.00
2022-08-31T05:36:27.939Z,180.00
2022-08-31T05:37:27.956Z,176.00
2022-08-31T05:38:27.916Z,172.00
2022-08-31T05:39:27.938Z,172.00
2022-08-31T05:40:27.950Z,180.00
2022-08-31T05:41:27.881Z,184.00
2022-08-31T05:42:27.869Z,196.00
2022-08-31T05:43:27.852Z,208.00
2022-08-31T05:44:29.522Z,208.00
2022-08-31T05:45:27.862Z,212.00
2022-08-31T05:46:27.868Z,224.00
2022-08-31T05:47:27.801Z,224.00
2022-08-31T05:48:29.902Z,228.00
2022-08-31T05:49:28.086Z,236.00
2022-08-31T05:50:27.811Z,240.00
2022-08-31T05:51:27.751Z,252.00
2022-08-31T05:52:27.739Z,256.00
2022-08-31T05:53:27.722Z,264.00
2022-08-31T05:54:27.707Z,288.00
2022-08-31T05:55:27.699Z,288.00
2022-08-31T05:56:27.698Z,284.00
2022-08-31T05:57:27.671Z,288.00
2022-08-31T05:58:27.667Z,288.00
2022-08-31T05:59:27.647Z,280.00
2022-08-31T06:00:27.630Z,284.00
2022-08-31T06:01:27.638Z,296.00
2022-08-31T06:02:27.608Z,300.00
2022-08-31T06:03:27.593Z,308.00
2022-08-31T06:04:27.579Z,312.00
2022-08-31T06:05:27.612Z,324.00
2022-08-31T06:06:27.622Z,332.00
2022-08-31T06:07:27.544Z,328.00
2022-08-31T06:08:27.642Z,340.00
2022-08-31T06:09:27.517Z,360.00
2022-08-31T06:10:27.501Z,372.00
2022-08-31T06:11:27.499Z,388.00
2022-08-31T06:12:27.550Z,404.00
2022-08-31T06:13:27.496Z,420.00
2022-08-31T06:14:27.450Z,416.00
2022-08-31T06:15:27.443Z,408.00
2022-08-31T06:16:27.496Z,400.00
2022-08-31T06:17:27.412Z,408.00
2022-08-31T06:18:27.424Z,404.00
2022-08-31T06:19:27.385Z,416.00
2022-08-31T06:20:27.429Z,412.00
2022-08-31T06:21:27.365Z,404.00
2022-08-31T06:22:27.345Z,420.00
2022-08-31T06:23:27.361Z,456.00
2022-08-31T06:24:27.317Z,440.00
2022-08-31T06:25:27.307Z,456.00
2022-08-31T06:26:27.299Z,452.00
2022-08-31T06:27:27.308Z,440.00
2022-08-31T06:28:27.269Z,448.00
2022-08-31T06:29:27.259Z,432.00
2022-08-31T06:30:27.547Z,440.00
2022-08-31T06:31:27.324Z,432.00
2022-08-31T06:32:27.250Z,408.00
2022-08-31T06:33:27.208Z,400.00
2022-08-31T06:34:27.216Z,400.00
2022-08-31T06:35:27.180Z,400.00
2022-08-31T06:36:27.162Z,416.00
2022-08-31T06:37:27.163Z,420.00
2022-08-31T06:38:27.141Z,436.00
2022-08-31T06:39:27.185Z,424.00
2022-08-31T06:40:27.247Z,428.00
2022-08-31T06:41:27.116Z,444.00
2022-08-31T06:42:27.158Z,428.00
2022-08-31T06:43:27.079Z,408.00
2022-08-31T06:44:27.085Z,400.00
2022-08-31T06:45:27.055Z,396.00
2022-08-31T06:46:27.069Z,384.00
2022-08-31T06:47:27.031Z,388.00
2022-08-31T06:48:27.038Z,392.00
2022-08-31T06:49:27.028Z,400.00
2022-08-31T06:50:26.996Z,396.00
2022-08-31T06:51:26.980Z,404.00
2022-08-31T06:52:26.961Z,424.00
2022-08-31T06:53:26.951Z,440.00
2022-08-31T06:54:29.861Z,464.00
2022-08-31T06:55:26.963Z,476.00
2022-08-31T06:56:26.907Z,472.00
2022-08-31T06:57:26.949Z,488.00
2022-08-31T06:58:26.889Z,492.00
2022-08-31T06:59:29.210Z,508.00
2022-08-31T07:00:26.884Z,520.00
2022-08-31T07:01:35.548Z,544.00
2022-08-31T07:02:26.876Z,576.00
2022-08-31T07:03:26.819Z,600.00
2022-08-31T07:04:26.804Z,620.00
2022-08-31T07:05:26.845Z,640.00
2022-08-31T07:06:26.790Z,636.00
2022-08-31T07:07:26.772Z,632.00
2022-08-31T07:08:26.753Z,652.00
2022-08-31T07:09:26.746Z,644.00
2022-08-31T07:10:26.758Z,656.00
2022-08-31T07:11:26.740Z,672.00
2022-08-31T07:12:26.720Z,684.00
2022-08-31T07:13:26.694Z,688.00
2022-08-31T07:14:26.703Z,692.00
2022-08-31T07:15:26.669Z,700.00
2022-08-31T07:16:26.673Z,688.00
2022-08-31T07:17:26.645Z,688.00
2022-08-31T07:18:26.679Z,700.00
2022-08-31T07:19:26.617Z,688.00
2022-08-31T07:20:26.618Z,692.00
2022-08-31T07:21:26.590Z,716.00
2022-08-31T07:22:26.921Z,712.00
2022-08-31T07:23:26.585Z,724.00
2022-08-31T07:24:26.555Z,732.00
2022-08-31T07:25:26.549Z,728.00
2022-08-31T07:26:26.529Z,732.00
2022-08-31T07:27:26.522Z,736.00
2022-08-31T07:28:26.505Z,744.00
2022-08-31T07:29:26.491Z,752.00
2022-08-31T07:30:26.793Z,764.00
2022-08-31T07:31:26.555Z,776.00
2022-08-31T07:32:26.479Z,784.00
2022-08-31T07:33:26.440Z,796.00
2022-08-31T07:34:26.437Z,812.00
2022-08-31T07:35:26.415Z,824.00
2022-08-31T07:36:26.400Z,828.00
2022-08-31T07:37:26.422Z,840.00
2022-08-31T07:38:26.376Z,876.00
2022-08-31T07:39:26.379Z,884.00
2022-08-31T07:40:26.407Z,900.00
2022-08-31T07:41:26.346Z,916.00
2022-08-31T07:42:26.365Z,972.00
2022-08-31T07:43:26.322Z,1036.00
2022-08-31T07:44:26.303Z,976.00
2022-08-31T07:45:30.285Z,968.00
2022-08-31T07:46:26.331Z,940.00
2022-08-31T07:47:26.268Z,940.00
2022-08-31T07:48:26.255Z,944.00
2022-08-31T07:49:26.253Z,952.00
2022-08-31T07:50:26.279Z,952.00
2022-08-31T07:51:26.220Z,980.00
2022-08-31T07:52:26.205Z,1048.00
2022-08-31T07:53:26.197Z,1192.00
2022-08-31T07:54:26.181Z,1032.00
2022-08-31T07:55:26.201Z,1084.00
2022-08-31T07:56:26.158Z,1120.00
2022-08-31T07:57:26.158Z,1340.00
2022-08-31T07:58:26.137Z,1448.00
2022-08-31T07:59:26.135Z,1472.00
2022-08-31T08:00:26.109Z,1332.00
2022-08-31T08:01:26.140Z,1276.00
2022-08-31T08:02:26.216Z,1104.00
2022-08-31T08:03:26.077Z,1140.00
2022-08-31T08:04:26.063Z,1416.00
2022-08-31T08:05:27.362Z,1544.00
2022-08-31T08:06:26.043Z,1744.00
2022-08-31T08:07:26.030Z,1804.00
2022-08-31T08:08:26.018Z,1468.00
2022-08-31T08:09:26.010Z,1192.00
2022-08-31T08:10:25.997Z,1232.00
2022-08-31T08:11:25.985Z,1472.00
2022-08-31T08:12:25.977Z,2208.00
2022-08-31T08:13:25.973Z,1852.00
2022-08-31T08:14:25.949Z,2384.00
2022-08-31T08:15:25.934Z,2448.00
2022-08-31T08:16:25.968Z,1660.00
2022-08-31T08:17:25.916Z,1560.00
2022-08-31T08:18:25.901Z,1612.00
2022-08-31T08:19:25.891Z,4820.00
2022-08-31T08:20:36.483Z,3184.00
2022-08-31T08:21:25.879Z,1260.00
2022-08-31T08:22:41.908Z,1420.00
2022-08-31T08:23:27.952Z,3160.00
2022-08-31T08:24:25.831Z,1472.00
2022-08-31T08:25:26.271Z,1124.00
2022-08-31T08:26:25.815Z,1096.00
2022-08-31T08:27:25.797Z,1036.00
2022-08-31T08:28:41.464Z,1096.00
2022-08-31T08:29:25.776Z,1780.00
2022-08-31T08:30:25.765Z,1524.00
2022-08-31T08:31:25.811Z,4360.00
2022-08-31T08:32:25.742Z,1304.00
2022-08-31T08:33:25.797Z,1088.00
2022-08-31T08:34:31.529Z,1164.00
2022-08-31T08:35:25.715Z,1304.00
2022-08-31T08:36:25.743Z,2224.00
2022-08-31T08:37:47.579Z,2028.00
2022-08-31T08:38:25.686Z,2376.00
2022-08-31T08:39:25.670Z,3652.00
2022-08-31T08:40:25.701Z,4588.00
2022-08-31T08:41:25.668Z,6448.00
2022-08-31T08:42:25.868Z,14460.00
2022-08-31T08:43:30.162Z,17600.00
2022-08-31T08:44:25.607Z,16352.00
2022-08-31T08:45:25.595Z,15936.00
2022-08-31T08:47:25.574Z,1436.00
2022-08-31T08:48:25.598Z,19904.00
2022-08-31T08:49:25.608Z,20256.00
2022-08-31T08:50:25.551Z,18016.00
2022-08-31T08:51:25.548Z,13300.00
2022-08-31T08:52:25.535Z,8564.00
2022-08-31T08:53:25.515Z,8748.00
2022-08-31T08:54:25.513Z,9848.00
2022-08-31T08:55:25.518Z,2396.00
2022-08-31T08:56:33.378Z,2072.00
2022-08-31T08:57:25.478Z,2160.00
2022-08-31T08:58:25.483Z,4732.00
2022-08-31T08:59:25.461Z,4372.00
2022-08-31T09:00:25.476Z,7864.00
2022-08-31T09:01:25.507Z,5696.00
2022-08-31T09:02:25.458Z,8700.00
2022-08-31T09:03:25.422Z,2088.00
2022-08-31T09:04:25.441Z,1488.00
2022-08-31T09:05:25.407Z,1960.00
2022-08-31T09:06:25.397Z,1488.00
2022-08-31T09:07:25.382Z,1276.00
2022-08-31T09:08:25.374Z,1264.00
2022-08-31T09:09:25.399Z,1296.00
2022-08-31T09:10:25.407Z,1272.00
2022-08-31T09:11:25.354Z,1776.00
2022-08-31T09:12:25.339Z,1400.00
2022-08-31T09:13:25.332Z,1900.00
2022-08-31T09:14:25.315Z,1276.00
2022-08-31T09:15:25.313Z,1248.00
2022-08-31T09:16:25.444Z,4084.00
2022-08-31T09:17:25.283Z,1332.00
2022-08-31T09:18:25.280Z,2780.00
2022-08-31T09:19:25.267Z,3744.00
2022-08-31T09:20:25.257Z,3316.00
2022-08-31T09:21:25.282Z,2988.00
2022-08-31T09:22:25.242Z,1876.00
2022-08-31T09:23:25.230Z,1480.00
2022-08-31T09:24:25.217Z,1944.00
2022-08-31T09:25:25.206Z,1496.00
2022-08-31T09:26:25.212Z,1552.00
2022-08-31T09:27:25.201Z,1708.00
2022-08-31T09:28:25.178Z,3416.00
2022-08-31T09:29:25.170Z,2896.00
2022-08-31T09:30:25.215Z,1320.00
2022-08-31T09:31:25.260Z,1404.00
2022-08-31T09:32:26.459Z,1516.00
2022-08-31T09:33:25.126Z,1516.00
2022-08-31T09:34:25.120Z,1300.00
2022-08-31T09:35:25.114Z,1324.00
2022-08-31T09:36:25.104Z,1288.00
2022-08-31T09:37:25.094Z,1216.00
2022-08-31T09:38:25.102Z,1236.00
2022-08-31T09:39:25.072Z,1276.00
2022-08-31T09:40:25.201Z,1224.00
2022-08-31T09:41:25.046Z,1276.00
2022-08-31T09:42:25.213Z,1180.00
2022-08-31T09:43:25.085Z,1080.00
2022-08-31T09:44:25.025Z,1252.00
2022-08-31T09:45:25.071Z,1152.00
2022-08-31T09:46:25.104Z,1092.00
2022-08-31T09:47:25.386Z,956.00
2022-08-31T09:48:25.221Z,1120.00
2022-08-31T09:49:25.215Z,1184.00
2022-08-31T09:50:25.336Z,1148.00
2022-08-31T09:51:24.963Z,1140.00
2022-08-31T09:52:24.966Z,1164.00
2022-08-31T09:53:24.925Z,1328.00
2022-08-31T09:54:24.953Z,1200.00
2022-08-31T09:55:24.942Z,1352.00
2022-08-31T09:56:24.901Z,1308.00
2022-08-31T09:57:24.887Z,1372.00
2022-08-31T09:58:24.884Z,1300.00
2022-08-31T09:59:24.893Z,1140.00
2022-08-31T10:00:24.886Z,1064.00
2022-08-31T10:01:24.903Z,1104.00
2022-08-31T10:02:24.848Z,1060.00
2022-08-31T10:03:24.826Z,1048.00
2022-08-31T10:04:24.841Z,1072.00
2022-08-31T10:05:24.884Z,1100.00
2022-08-31T10:06:24.794Z,1252.00
2022-08-31T10:07:25.023Z,1468.00
2022-08-31T10:08:24.777Z,1224.00
2022-08-31T10:09:24.763Z,1252.00
2022-08-31T10:10:30.958Z,1036.00
2022-08-31T10:11:24.748Z,1008.00
2022-08-31T10:12:24.747Z,1376.00
2022-08-31T10:13:24.727Z,1316.00
2022-08-31T10:14:24.725Z,1000.00
2022-08-31T10:15:24.739Z,1056.00
2022-08-31T10:16:24.791Z,1248.00
2022-08-31T10:17:24.684Z,1228.00
2022-08-31T10:18:24.701Z,1772.00
2022-08-31T10:19:24.672Z,1772.00
2022-08-31T10:20:26.367Z,2060.00
2022-08-31T10:21:24.644Z,1268.00
2022-08-31T10:22:24.651Z,1288.00
2022-08-31T10:23:24.630Z,1080.00
2022-08-31T10:24:24.618Z,1112.00
2022-08-31T10:25:24.606Z,1328.00
2022-08-31T10:26:24.601Z,1056.00
2022-08-31T10:27:24.593Z,1064.00
2022-08-31T10:28:24.578Z,1392.00
2022-08-31T10:29:24.566Z,1300.00
2022-08-31T10:30:24.624Z,1036.00
2022-08-31T10:31:24.597Z,1036.00
2022-08-31T10:32:24.545Z,936.00
2022-08-31T10:33:24.528Z,1116.00
2022-08-31T10:34:24.519Z,1088.00
2022-08-31T10:35:24.507Z,1212.00
2022-08-31T10:36:24.530Z,1188.00
2022-08-31T10:37:24.563Z,1212.00
2022-08-31T10:38:24.530Z,932.00
2022-08-31T10:39:24.549Z,1024.00
2022-08-31T10:40:24.548Z,860.00
2022-08-31T10:41:24.467Z,1008.00
2022-08-31T10:42:24.446Z,832.00
2022-08-31T10:43:24.466Z,868.00
2022-08-31T10:44:24.424Z,812.00
2022-08-31T10:45:24.420Z,1144.00
2022-08-31T10:46:24.432Z,1264.00
2022-08-31T10:47:33.869Z,1108.00
2022-08-31T10:48:24.443Z,1388.00
2022-08-31T10:49:24.378Z,924.00
2022-08-31T10:50:24.363Z,992.00
2022-08-31T10:51:24.351Z,956.00
2022-08-31T10:52:24.355Z,1120.00
2022-08-31T10:53:24.334Z,1016.00
2022-08-31T10:54:24.382Z,1012.00
2022-08-31T10:55:24.320Z,744.00
2022-08-31T10:56:24.325Z,780.00
2022-08-31T10:57:26.181Z,796.00
2022-08-31T10:58:24.284Z,704.00
2022-08-31T10:59:24.277Z,756.00
2022-08-31T11:00:24.297Z,772.00
2022-08-31T11:01:24.328Z,888.00
2022-08-31T11:02:24.253Z,1052.00
2022-08-31T11:03:24.272Z,1076.00
2022-08-31T11:04:24.258Z,980.00
2022-08-31T11:05:24.253Z,3348.00
2022-08-31T11:06:24.208Z,1036.00
2022-08-31T11:07:24.223Z,1624.00
2022-08-31T11:08:24.193Z,1092.00
2022-08-31T11:09:24.182Z,888.00
2022-08-31T11:10:24.205Z,904.00
2022-08-31T11:11:24.207Z,984.00
2022-08-31T11:12:24.147Z,920.00
2022-08-31T11:13:24.167Z,1016.00
2022-08-31T11:14:24.167Z,968.00
2022-08-31T11:15:24.149Z,940.00
2022-08-31T11:16:24.156Z,956.00
2022-08-31T11:17:24.096Z,848.00
2022-08-31T11:18:24.090Z,948.00
2022-08-31T11:19:24.084Z,1164.00
2022-08-31T11:20:24.087Z,1296.00
2022-08-31T11:21:24.098Z,1140.00
2022-08-31T11:22:24.078Z,1128.00
2022-08-31T11:23:24.042Z,1020.00
2022-08-31T11:24:24.036Z,1068.00
2022-08-31T11:25:24.019Z,1092.00
2022-08-31T11:26:24.032Z,1316.00
2022-08-31T11:27:24.073Z,1244.00
2022-08-31T11:28:23.992Z,1184.00
2022-08-31T11:29:23.989Z,1144.00
2022-08-31T11:30:24.043Z,1060.00
2022-08-31T11:31:24.255Z,1084.00
2022-08-31T11:32:23.960Z,1044.00
2022-08-31T11:33:23.947Z,1208.00
2022-08-31T11:34:23.942Z,1512.00
2022-08-31T11:35:23.952Z,1492.00
2022-08-31T11:36:23.921Z,1528.00
2022-08-31T11:37:23.922Z,1096.00
2022-08-31T11:38:23.926Z,1560.00
2022-08-31T11:39:23.889Z,1292.00
2022-08-31T11:40:23.976Z,1060.00
2022-08-31T11:41:23.870Z,1100.00
2022-08-31T11:42:23.872Z,1044.00
2022-08-31T11:43:23.853Z,1040.00
2022-08-31T11:44:23.841Z,1056.00
2022-08-31T11:45:23.838Z,1236.00
2022-08-31T11:46:23.951Z,1136.00
2022-08-31T11:47:23.816Z,1268.00
2022-08-31T11:48:23.812Z,1880.00
2022-08-31T11:49:23.797Z,1472.00
2022-08-31T11:50:23.788Z,1436.00
2022-08-31T11:51:23.810Z,1348.00
2022-08-31T11:52:23.771Z,1540.00
2022-08-31T11:53:23.757Z,1320.00
2022-08-31T11:54:23.752Z,1256.00
2022-08-31T11:55:23.739Z,1196.00
2022-08-31T11:56:23.745Z,1448.00
2022-08-31T11:57:23.802Z,1568.00
2022-08-31T11:58:23.717Z,1864.00
2022-08-31T11:59:23.708Z,1400.00
2022-08-31T12:00:23.695Z,1140.00
2022-08-31T12:01:23.694Z,1216.00
2022-08-31T12:02:23.752Z,2788.00
2022-08-31T12:03:23.692Z,1264.00
2022-08-31T12:04:23.752Z,1216.00
2022-08-31T12:05:23.693Z,1264.00
2022-08-31T12:06:23.637Z,1636.00
2022-08-31T12:07:23.630Z,1300.00
2022-08-31T12:08:23.640Z,1232.00
2022-08-31T12:09:23.638Z,1224.00
2022-08-31T12:10:27.180Z,1228.00
2022-08-31T12:11:23.600Z,1368.00
2022-08-31T12:12:23.594Z,1264.00
2022-08-31T12:13:23.620Z,1320.00
2022-08-31T12:14:24.134Z,1572.00
2022-08-31T12:15:23.614Z,1068.00
2022-08-31T12:16:23.662Z,1236.00
2022-08-31T12:17:23.747Z,1268.00
2022-08-31T12:18:23.535Z,1436.00
2022-08-31T12:19:23.525Z,1332.00
2022-08-31T12:20:23.514Z,2220.00
2022-08-31T12:21:23.527Z,1624.00
2022-08-31T12:22:23.547Z,1480.00
2022-08-31T12:23:30.921Z,1312.00
2022-08-31T12:24:23.481Z,1432.00
2022-08-31T12:25:23.463Z,2756.00
2022-08-31T12:26:23.467Z,1320.00
2022-08-31T12:27:23.464Z,1828.00
2022-08-31T12:28:29.146Z,1528.00
2022-08-31T12:29:23.430Z,1536.00
2022-08-31T12:30:23.441Z,1224.00
2022-08-31T12:31:23.482Z,1176.00
2022-08-31T12:32:23.405Z,1188.00
2022-08-31T12:33:23.393Z,1396.00
2022-08-31T12:34:24.648Z,1296.00
2022-08-31T12:35:23.374Z,2540.00
2022-08-31T12:36:23.379Z,4864.00
2022-08-31T12:37:23.360Z,0.00
2022-08-31T12:38:23.361Z,1604.00
2022-08-31T12:39:23.407Z,1496.00